sensor_id;sensor_type;location;lat;lon;timestamp;P1;durP1;ratioP1;P2;durP2;ratioP2
58954;SDS011;45815;52.334;5.024;2024-02-21T00:01:36;20.10;;;4.10;;
58954;SDS011;45815;52.334;5.024;2024-02-21T00:04:01;21.48;;;5.22;;
58954;SDS011;45815;52.334;5.024;2024-02-21T00:06:27;21.00;;;3.78;;
58954;SDS011;45815;52.334;5.024;2024-02-21T00:08:52;16.35;;;3.53;;
58954;SDS011;45815;52.334;5.024;2024-02-21T00:11:17;19.05;;;3.25;;
58954;SDS011;45815;52.334;5.024;2024-02-21T00:13:43;16.35;;;4.15;;
58954;SDS011;45815;52.334;5.024;2024-02-21T00:16:08;24.52;;;4.00;;
58954;SDS011;45815;52.334;5.024;2024-02-21T00:18:34;17.80;;;3.50;;
58954;SDS011;45815;52.334;5.024;2024-02-21T00:20:59;17.75;;;4.40;;
58954;SDS011;45815;52.334;5.024;2024-02-21T00:23:26;21.35;;;3.65;;
58954;SDS011;45815;52.334;5.024;2024-02-21T00:25:53;19.67;;;3.72;;
58954;SDS011;45815;52.334;5.024;2024-02-21T00:28:18;22.63;;;4.47;;
58954;SDS011;45815;52.334;5.024;2024-02-21T00:30:43;25.42;;;3.78;;
58954;SDS011;45815;52.334;5.024;2024-02-21T00:33:09;24.33;;;3.85;;
58954;SDS011;45815;52.334;5.024;2024-02-21T00:35:34;16.95;;;3.88;;
58954;SDS011;45815;52.334;5.024;2024-02-21T00:38:00;24.88;;;3.42;;
58954;SDS011;45815;52.334;5.024;2024-02-21T00:40:25;19.70;;;3.95;;
58954;SDS011;45815;52.334;5.024;2024-02-21T00:42:51;20.60;;;3.80;;
58954;SDS011;45815;52.334;5.024;2024-02-21T00:45:16;17.08;;;3.30;;
58954;SDS011;45815;52.334;5.024;2024-02-21T00:47:41;20.02;;;3.20;;
58954;SDS011;45815;52.334;5.024;2024-02-21T00:50:07;21.98;;;3.97;;
58954;SDS011;45815;52.334;5.024;2024-02-21T00:52:34;17.70;;;3.15;;
58954;SDS011;45815;52.334;5.024;2024-02-21T00:55:00;16.85;;;3.97;;
58954;SDS011;45815;52.334;5.024;2024-02-21T00:57:25;19.77;;;3.60;;
58954;SDS011;45815;52.334;5.024;2024-02-21T00:59:51;22.20;;;4.30;;
58954;SDS011;45815;52.334;5.024;2024-02-21T01:02:16;18.83;;;3.88;;
58954;SDS011;45815;52.334;5.024;2024-02-21T01:04:42;18.60;;;3.42;;
58954;SDS011;45815;52.334;5.024;2024-02-21T01:07:07;21.33;;;4.32;;
58954;SDS011;45815;52.334;5.024;2024-02-21T01:09:33;19.45;;;3.95;;
58954;SDS011;45815;52.334;5.024;2024-02-21T01:11:58;16.90;;;3.22;;
58954;SDS011;45815;52.334;5.024;2024-02-21T01:14:23;17.58;;;3.95;;
58954;SDS011;45815;52.334;5.024;2024-02-21T01:16:49;19.42;;;4.13;;
58954;SDS011;45815;52.334;5.024;2024-02-21T01:19:15;16.27;;;4.20;;
58954;SDS011;45815;52.334;5.024;2024-02-21T01:21:40;18.48;;;3.80;;
58954;SDS011;45815;52.334;5.024;2024-02-21T01:24:05;23.50;;;4.20;;
58954;SDS011;45815;52.334;5.024;2024-02-21T01:26:31;18.10;;;3.67;;
58954;SDS011;45815;52.334;5.024;2024-02-21T01:28:56;18.83;;;3.92;;
58954;SDS011;45815;52.334;5.024;2024-02-21T01:31:21;21.15;;;4.30;;
58954;SDS011;45815;52.334;5.024;2024-02-21T01:33:47;17.15;;;3.30;;
58954;SDS011;45815;52.334;5.024;2024-02-21T01:36:13;14.88;;;3.72;;
58954;SDS011;45815;52.334;5.024;2024-02-21T01:38:38;18.55;;;3.65;;
58954;SDS011;45815;52.334;5.024;2024-02-21T01:41:03;20.55;;;3.35;;
58954;SDS011;45815;52.334;5.024;2024-02-21T01:43:29;16.00;;;3.25;;
58954;SDS011;45815;52.334;5.024;2024-02-21T01:45:55;24.88;;;3.47;;
58954;SDS011;45815;52.334;5.024;2024-02-21T01:48:24;22.20;;;3.53;;
58954;SDS011;45815;52.334;5.024;2024-02-21T01:50:50;21.02;;;3.42;;
58954;SDS011;45815;52.334;5.024;2024-02-21T01:53:17;15.30;;;3.40;;
58954;SDS011;45815;52.334;5.024;2024-02-21T01:55:46;23.55;;;4.47;;
58954;SDS011;45815;52.334;5.024;2024-02-21T01:58:15;18.90;;;3.92;;
58954;SDS011;45815;52.334;5.024;2024-02-21T02:00:42;18.42;;;3.45;;
58954;SDS011;45815;52.334;5.024;2024-02-21T02:03:11;20.48;;;3.53;;
58954;SDS011;45815;52.334;5.024;2024-02-21T02:05:50;17.75;;;3.00;;
58954;SDS011;45815;52.334;5.024;2024-02-21T02:08:17;21.00;;;3.47;;
58954;SDS011;45815;52.334;5.024;2024-02-21T02:10:44;20.00;;;3.30;;
58954;SDS011;45815;52.334;5.024;2024-02-21T02:13:10;19.75;;;3.88;;
58954;SDS011;45815;52.334;5.024;2024-02-21T02:18:04;18.73;;;3.45;;
58954;SDS011;45815;52.334;5.024;2024-02-21T02:20:30;19.15;;;3.83;;
58954;SDS011;45815;52.334;5.024;2024-02-21T02:22:55;17.88;;;3.40;;
58954;SDS011;45815;52.334;5.024;2024-02-21T02:25:23;20.45;;;3.85;;
58954;SDS011;45815;52.334;5.024;2024-02-21T02:27:48;20.40;;;3.70;;
58954;SDS011;45815;52.334;5.024;2024-02-21T02:30:13;20.48;;;3.78;;
58954;SDS011;45815;52.334;5.024;2024-02-21T02:32:39;17.83;;;4.47;;
58954;SDS011;45815;52.334;5.024;2024-02-21T02:35:04;19.58;;;3.80;;
58954;SDS011;45815;52.334;5.024;2024-02-21T02:37:30;17.92;;;3.67;;
58954;SDS011;45815;52.334;5.024;2024-02-21T02:39:55;21.17;;;3.03;;
58954;SDS011;45815;52.334;5.024;2024-02-21T02:42:21;17.60;;;3.65;;
58954;SDS011;45815;52.334;5.024;2024-02-21T02:44:46;27.83;;;4.30;;
58954;SDS011;45815;52.334;5.024;2024-02-21T02:47:11;20.30;;;3.38;;
58954;SDS011;45815;52.334;5.024;2024-02-21T02:49:37;17.50;;;3.97;;
58954;SDS011;45815;52.334;5.024;2024-02-21T02:52:02;16.42;;;3.38;;
58954;SDS011;45815;52.334;5.024;2024-02-21T02:54:28;21.25;;;4.05;;
58954;SDS011;45815;52.334;5.024;2024-02-21T02:56:53;22.30;;;4.00;;
58954;SDS011;45815;52.334;5.024;2024-02-21T02:59:19;17.33;;;3.33;;
58954;SDS011;45815;52.334;5.024;2024-02-21T03:01:44;18.05;;;3.25;;
58954;SDS011;45815;52.334;5.024;2024-02-21T03:04:09;17.48;;;3.08;;
58954;SDS011;45815;52.334;5.024;2024-02-21T03:06:35;18.45;;;3.85;;
58954;SDS011;45815;52.334;5.024;2024-02-21T03:09:00;20.08;;;2.83;;
58954;SDS011;45815;52.334;5.024;2024-02-21T03:11:25;16.75;;;3.55;;
58954;SDS011;45815;52.334;5.024;2024-02-21T03:13:54;17.48;;;3.63;;
58954;SDS011;45815;52.334;5.024;2024-02-21T03:16:21;16.10;;;3.80;;
58954;SDS011;45815;52.334;5.024;2024-02-21T03:18:47;23.15;;;4.30;;
58954;SDS011;45815;52.334;5.024;2024-02-21T03:21:12;19.20;;;2.88;;
58954;SDS011;45815;52.334;5.024;2024-02-21T03:23:38;13.27;;;3.17;;
58954;SDS011;45815;52.334;5.024;2024-02-21T03:26:03;20.85;;;3.60;;
58954;SDS011;45815;52.334;5.024;2024-02-21T03:28:29;24.13;;;4.18;;
58954;SDS011;45815;52.334;5.024;2024-02-21T03:30:54;20.42;;;4.00;;
58954;SDS011;45815;52.334;5.024;2024-02-21T03:33:20;22.02;;;3.60;;
58954;SDS011;45815;52.334;5.024;2024-02-21T03:35:46;26.27;;;3.53;;
58954;SDS011;45815;52.334;5.024;2024-02-21T03:38:11;19.77;;;4.80;;
58954;SDS011;45815;52.334;5.024;2024-02-21T03:40:36;25.40;;;3.65;;
58954;SDS011;45815;52.334;5.024;2024-02-21T03:43:02;18.10;;;3.78;;
58954;SDS011;45815;52.334;5.024;2024-02-21T03:45:27;26.65;;;4.20;;
58954;SDS011;45815;52.334;5.024;2024-02-21T03:47:53;26.33;;;4.95;;
58954;SDS011;45815;52.334;5.024;2024-02-21T03:50:18;16.90;;;3.47;;
58954;SDS011;45815;52.334;5.024;2024-02-21T03:52:44;21.58;;;3.95;;
58954;SDS011;45815;52.334;5.024;2024-02-21T03:55:09;24.48;;;3.63;;
58954;SDS011;45815;52.334;5.024;2024-02-21T03:57:34;17.30;;;5.05;;
58954;SDS011;45815;52.334;5.024;2024-02-21T04:00:00;16.55;;;3.85;;
58954;SDS011;45815;52.334;5.024;2024-02-21T04:02:25;23.63;;;3.85;;
58954;SDS011;45815;52.334;5.024;2024-02-21T04:04:51;17.27;;;3.50;;
58954;SDS011;45815;52.334;5.024;2024-02-21T04:07:16;23.02;;;4.28;;
58954;SDS011;45815;52.334;5.024;2024-02-21T04:09:41;27.73;;;3.92;;
58954;SDS011;45815;52.334;5.024;2024-02-21T04:12:08;21.52;;;3.80;;
58954;SDS011;45815;52.334;5.024;2024-02-21T04:14:33;18.63;;;3.53;;
58954;SDS011;45815;52.334;5.024;2024-02-21T04:16:59;21.30;;;4.28;;
58954;SDS011;45815;52.334;5.024;2024-02-21T04:19:25;21.48;;;4.72;;
58954;SDS011;45815;52.334;5.024;2024-02-21T04:21:50;24.40;;;4.90;;
58954;SDS011;45815;52.334;5.024;2024-02-21T04:24:16;22.48;;;4.70;;
58954;SDS011;45815;52.334;5.024;2024-02-21T04:26:41;22.83;;;4.43;;
58954;SDS011;45815;52.334;5.024;2024-02-21T04:29:07;17.83;;;5.57;;
58954;SDS011;45815;52.334;5.024;2024-02-21T04:31:32;21.00;;;4.00;;
58954;SDS011;45815;52.334;5.024;2024-02-21T04:33:58;21.55;;;4.82;;
58954;SDS011;45815;52.334;5.024;2024-02-21T04:36:23;21.33;;;5.32;;
58954;SDS011;45815;52.334;5.024;2024-02-21T04:38:49;16.88;;;4.25;;
58954;SDS011;45815;52.334;5.024;2024-02-21T04:41:15;23.10;;;5.85;;
58954;SDS011;45815;52.334;5.024;2024-02-21T04:43:40;20.95;;;4.70;;
58954;SDS011;45815;52.334;5.024;2024-02-21T04:46:06;15.57;;;5.10;;
58954;SDS011;45815;52.334;5.024;2024-02-21T04:48:31;16.50;;;5.43;;
58954;SDS011;45815;52.334;5.024;2024-02-21T04:50:57;15.07;;;5.50;;
58954;SDS011;45815;52.334;5.024;2024-02-21T04:53:22;15.38;;;4.65;;
58954;SDS011;45815;52.334;5.024;2024-02-21T04:55:48;18.50;;;5.47;;
58954;SDS011;45815;52.334;5.024;2024-02-21T04:58:13;21.88;;;5.88;;
58954;SDS011;45815;52.334;5.024;2024-02-21T05:00:38;19.83;;;5.63;;
58954;SDS011;45815;52.334;5.024;2024-02-21T05:03:04;19.92;;;6.07;;
58954;SDS011;45815;52.334;5.024;2024-02-21T05:05:29;22.70;;;5.75;;
58954;SDS011;45815;52.334;5.024;2024-02-21T05:07:55;17.92;;;5.63;;
58954;SDS011;45815;52.334;5.024;2024-02-21T05:10:20;21.92;;;5.22;;
58954;SDS011;45815;52.334;5.024;2024-02-21T05:12:46;17.05;;;6.43;;
58954;SDS011;45815;52.334;5.024;2024-02-21T05:15:11;18.63;;;4.82;;
58954;SDS011;45815;52.334;5.024;2024-02-21T05:17:36;20.15;;;5.70;;
58954;SDS011;45815;52.334;5.024;2024-02-21T05:20:02;21.67;;;5.40;;
58954;SDS011;45815;52.334;5.024;2024-02-21T05:22:28;17.77;;;5.05;;
58954;SDS011;45815;52.334;5.024;2024-02-21T05:24:54;18.58;;;4.93;;
58954;SDS011;45815;52.334;5.024;2024-02-21T05:27:19;21.10;;;5.50;;
58954;SDS011;45815;52.334;5.024;2024-02-21T05:29:44;19.30;;;5.88;;
58954;SDS011;45815;52.334;5.024;2024-02-21T05:32:10;18.08;;;5.55;;
58954;SDS011;45815;52.334;5.024;2024-02-21T05:34:35;17.15;;;5.80;;
58954;SDS011;45815;52.334;5.024;2024-02-21T05:37:01;17.77;;;5.63;;
58954;SDS011;45815;52.334;5.024;2024-02-21T05:39:26;15.70;;;6.03;;
58954;SDS011;45815;52.334;5.024;2024-02-21T05:41:54;19.35;;;6.60;;
58954;SDS011;45815;52.334;5.024;2024-02-21T05:44:19;15.05;;;7.32;;
58954;SDS011;45815;52.334;5.024;2024-02-21T05:46:44;17.75;;;8.02;;
58954;SDS011;45815;52.334;5.024;2024-02-21T05:49:11;18.65;;;7.85;;
58954;SDS011;45815;52.334;5.024;2024-02-21T05:51:36;15.80;;;8.00;;
58954;SDS011;45815;52.334;5.024;2024-02-21T05:54:01;16.58;;;8.90;;
58954;SDS011;45815;52.334;5.024;2024-02-21T05:56:27;18.77;;;8.95;;
58954;SDS011;45815;52.334;5.024;2024-02-21T05:58:53;21.85;;;8.40;;
58954;SDS011;45815;52.334;5.024;2024-02-21T06:01:18;18.48;;;8.63;;
58954;SDS011;45815;52.334;5.024;2024-02-21T06:03:44;22.58;;;9.35;;
58954;SDS011;45815;52.334;5.024;2024-02-21T06:06:10;18.25;;;8.45;;
58954;SDS011;45815;52.334;5.024;2024-02-21T06:08:35;21.48;;;9.18;;
58954;SDS011;45815;52.334;5.024;2024-02-21T06:11:01;22.25;;;10.00;;
58954;SDS011;45815;52.334;5.024;2024-02-21T06:13:26;21.48;;;9.88;;
58954;SDS011;45815;52.334;5.024;2024-02-21T06:15:52;21.15;;;10.23;;
58954;SDS011;45815;52.334;5.024;2024-02-21T06:18:18;23.40;;;10.82;;
58954;SDS011;45815;52.334;5.024;2024-02-21T06:20:43;19.63;;;10.40;;
58954;SDS011;45815;52.334;5.024;2024-02-21T06:23:09;20.45;;;10.43;;
58954;SDS011;45815;52.334;5.024;2024-02-21T06:25:36;19.45;;;10.20;;
58954;SDS011;45815;52.334;5.024;2024-02-21T06:28:02;21.40;;;11.10;;
58954;SDS011;45815;52.334;5.024;2024-02-21T06:30:27;22.45;;;11.50;;
58954;SDS011;45815;52.334;5.024;2024-02-21T06:32:53;18.05;;;11.00;;
58954;SDS011;45815;52.334;5.024;2024-02-21T06:35:21;19.15;;;10.77;;
58954;SDS011;45815;52.334;5.024;2024-02-21T06:37:46;20.63;;;11.65;;
58954;SDS011;45815;52.334;5.024;2024-02-21T06:40:16;22.98;;;11.45;;
58954;SDS011;45815;52.334;5.024;2024-02-21T06:42:42;22.30;;;11.95;;
58954;SDS011;45815;52.334;5.024;2024-02-21T06:45:07;21.15;;;10.90;;
58954;SDS011;45815;52.334;5.024;2024-02-21T06:47:33;22.60;;;10.93;;
58954;SDS011;45815;52.334;5.024;2024-02-21T06:49:58;23.48;;;11.45;;
58954;SDS011;45815;52.334;5.024;2024-02-21T06:52:23;19.83;;;10.60;;
58954;SDS011;45815;52.334;5.024;2024-02-21T06:54:49;16.98;;;10.30;;
58954;SDS011;45815;52.334;5.024;2024-02-21T06:57:15;20.17;;;9.80;;
58954;SDS011;45815;52.334;5.024;2024-02-21T06:59:41;16.75;;;9.45;;
58954;SDS011;45815;52.334;5.024;2024-02-21T07:02:07;19.75;;;10.32;;
58954;SDS011;45815;52.334;5.024;2024-02-21T07:04:33;20.05;;;10.25;;
58954;SDS011;45815;52.334;5.024;2024-02-21T07:06:59;19.65;;;11.07;;
58954;SDS011;45815;52.334;5.024;2024-02-21T07:09:24;17.08;;;10.38;;
58954;SDS011;45815;52.334;5.024;2024-02-21T07:11:50;19.48;;;10.25;;
58954;SDS011;45815;52.334;5.024;2024-02-21T07:14:15;18.27;;;10.65;;
58954;SDS011;45815;52.334;5.024;2024-02-21T07:16:40;24.02;;;11.80;;
58954;SDS011;45815;52.334;5.024;2024-02-21T07:19:06;22.17;;;11.88;;
58954;SDS011;45815;52.334;5.024;2024-02-21T07:21:32;19.38;;;9.80;;
58954;SDS011;45815;52.334;5.024;2024-02-21T07:23:57;18.15;;;11.90;;
58954;SDS011;45815;52.334;5.024;2024-02-21T07:26:23;17.40;;;10.05;;
58954;SDS011;45815;52.334;5.024;2024-02-21T07:28:48;22.88;;;11.70;;
58954;SDS011;45815;52.334;5.024;2024-02-21T07:31:13;19.80;;;11.15;;
58954;SDS011;45815;52.334;5.024;2024-02-21T07:33:39;25.38;;;11.75;;
58954;SDS011;45815;52.334;5.024;2024-02-21T07:36:10;23.02;;;11.30;;
58954;SDS011;45815;52.334;5.024;2024-02-21T07:38:35;21.55;;;11.48;;
58954;SDS011;45815;52.334;5.024;2024-02-21T07:41:01;20.42;;;11.13;;
58954;SDS011;45815;52.334;5.024;2024-02-21T07:43:26;20.95;;;10.80;;
58954;SDS011;45815;52.334;5.024;2024-02-21T07:45:52;21.38;;;10.77;;
58954;SDS011;45815;52.334;5.024;2024-02-21T07:48:21;17.88;;;9.68;;
58954;SDS011;45815;52.334;5.024;2024-02-21T07:50:49;19.60;;;10.57;;
58954;SDS011;45815;52.334;5.024;2024-02-21T07:53:17;23.35;;;9.77;;
58954;SDS011;45815;52.334;5.024;2024-02-21T07:55:44;20.58;;;9.27;;
58954;SDS011;45815;52.334;5.024;2024-02-21T07:58:10;19.33;;;9.23;;
58954;SDS011;45815;52.334;5.024;2024-02-21T08:00:35;25.20;;;10.23;;
58954;SDS011;45815;52.334;5.024;2024-02-21T08:03:00;19.05;;;9.40;;
58954;SDS011;45815;52.334;5.024;2024-02-21T08:05:26;16.48;;;8.88;;
58954;SDS011;45815;52.334;5.024;2024-02-21T08:07:51;21.05;;;10.60;;
58954;SDS011;45815;52.334;5.024;2024-02-21T08:10:16;19.58;;;9.60;;
58954;SDS011;45815;52.334;5.024;2024-02-21T08:12:42;24.35;;;10.13;;
58954;SDS011;45815;52.334;5.024;2024-02-21T08:15:07;14.93;;;8.02;;
58954;SDS011;45815;52.334;5.024;2024-02-21T08:17:35;18.30;;;9.18;;
58954;SDS011;45815;52.334;5.024;2024-02-21T08:20:01;21.85;;;10.90;;
58954;SDS011;45815;52.334;5.024;2024-02-21T08:22:28;25.95;;;10.05;;
58954;SDS011;45815;52.334;5.024;2024-02-21T08:24:53;18.50;;;9.45;;
58954;SDS011;45815;52.334;5.024;2024-02-21T08:27:18;18.90;;;10.40;;
58954;SDS011;45815;52.334;5.024;2024-02-21T08:29:44;25.75;;;10.18;;
58954;SDS011;45815;52.334;5.024;2024-02-21T08:32:09;23.95;;;10.63;;
58954;SDS011;45815;52.334;5.024;2024-02-21T08:34:35;19.13;;;9.18;;
58954;SDS011;45815;52.334;5.024;2024-02-21T08:37:00;27.20;;;12.88;;
58954;SDS011;45815;52.334;5.024;2024-02-21T08:39:25;21.20;;;10.88;;
58954;SDS011;45815;52.334;5.024;2024-02-21T08:41:53;22.40;;;11.25;;
58954;SDS011;45815;52.334;5.024;2024-02-21T08:44:19;21.52;;;11.30;;
58954;SDS011;45815;52.334;5.024;2024-02-21T08:46:44;21.85;;;11.90;;
58954;SDS011;45815;52.334;5.024;2024-02-21T08:49:10;23.85;;;11.73;;
58954;SDS011;45815;52.334;5.024;2024-02-21T08:51:35;24.38;;;11.45;;
58954;SDS011;45815;52.334;5.024;2024-02-21T08:54:00;20.00;;;11.13;;
58954;SDS011;45815;52.334;5.024;2024-02-21T08:56:27;26.92;;;11.23;;
58954;SDS011;45815;52.334;5.024;2024-02-21T08:58:52;21.42;;;11.60;;
58954;SDS011;45815;52.334;5.024;2024-02-21T09:01:17;21.20;;;10.90;;
58954;SDS011;45815;52.334;5.024;2024-02-21T09:03:43;22.25;;;11.43;;
58954;SDS011;45815;52.334;5.024;2024-02-21T09:06:09;22.63;;;11.10;;
58954;SDS011;45815;52.334;5.024;2024-02-21T09:08:35;20.00;;;10.80;;
58954;SDS011;45815;52.334;5.024;2024-02-21T09:11:00;22.20;;;10.88;;
58954;SDS011;45815;52.334;5.024;2024-02-21T09:13:26;20.77;;;11.52;;
58954;SDS011;45815;52.334;5.024;2024-02-21T09:15:52;19.38;;;10.50;;
58954;SDS011;45815;52.334;5.024;2024-02-21T09:18:17;21.65;;;11.65;;
58954;SDS011;45815;52.334;5.024;2024-02-21T09:20:43;21.33;;;11.02;;
58954;SDS011;45815;52.334;5.024;2024-02-21T09:23:09;21.80;;;12.00;;
58954;SDS011;45815;52.334;5.024;2024-02-21T09:25:34;24.88;;;12.32;;
58954;SDS011;45815;52.334;5.024;2024-02-21T09:28:01;22.63;;;10.65;;
58954;SDS011;45815;52.334;5.024;2024-02-21T09:30:27;23.05;;;11.68;;
58954;SDS011;45815;52.334;5.024;2024-02-21T09:32:52;23.75;;;11.98;;
58954;SDS011;45815;52.334;5.024;2024-02-21T09:35:18;23.48;;;11.73;;
58954;SDS011;45815;52.334;5.024;2024-02-21T09:37:43;25.10;;;11.98;;
58954;SDS011;45815;52.334;5.024;2024-02-21T09:40:09;24.15;;;11.88;;
58954;SDS011;45815;52.334;5.024;2024-02-21T09:42:38;19.92;;;10.85;;
58954;SDS011;45815;52.334;5.024;2024-02-21T09:45:07;27.27;;;13.38;;
58954;SDS011;45815;52.334;5.024;2024-02-21T09:47:38;24.55;;;12.90;;
58954;SDS011;45815;52.334;5.024;2024-02-21T09:50:11;21.50;;;11.80;;
58954;SDS011;45815;52.334;5.024;2024-02-21T09:52:39;23.00;;;12.27;;
58954;SDS011;45815;52.334;5.024;2024-02-21T09:55:05;30.02;;;12.63;;
58954;SDS011;45815;52.334;5.024;2024-02-21T09:57:33;23.10;;;12.73;;
58954;SDS011;45815;52.334;5.024;2024-02-21T09:59:59;24.17;;;13.23;;
58954;SDS011;45815;52.334;5.024;2024-02-21T10:02:38;19.27;;;9.63;;
58954;SDS011;45815;52.334;5.024;2024-02-21T10:05:04;24.15;;;12.27;;
58954;SDS011;45815;52.334;5.024;2024-02-21T10:07:33;23.67;;;12.13;;
58954;SDS011;45815;52.334;5.024;2024-02-21T10:10:05;23.30;;;11.43;;
58954;SDS011;45815;52.334;5.024;2024-02-21T10:12:31;22.67;;;11.32;;
58954;SDS011;45815;52.334;5.024;2024-02-21T10:15:00;22.05;;;11.77;;
58954;SDS011;45815;52.334;5.024;2024-02-21T10:17:30;21.48;;;11.05;;
58954;SDS011;45815;52.334;5.024;2024-02-21T10:20:06;22.88;;;11.98;;
58954;SDS011;45815;52.334;5.024;2024-02-21T10:22:32;24.70;;;11.18;;
58954;SDS011;45815;52.334;5.024;2024-02-21T10:25:10;20.23;;;10.52;;
58954;SDS011;45815;52.334;5.024;2024-02-21T10:27:39;18.67;;;9.82;;
58954;SDS011;45815;52.334;5.024;2024-02-21T10:30:07;20.30;;;10.30;;
58954;SDS011;45815;52.334;5.024;2024-02-21T10:32:59;19.10;;;9.13;;
58954;SDS011;45815;52.334;5.024;2024-02-21T10:35:30;21.52;;;10.48;;
58954;SDS011;45815;52.334;5.024;2024-02-21T10:37:57;18.85;;;8.57;;
58954;SDS011;45815;52.334;5.024;2024-02-21T10:40:26;17.50;;;8.95;;
58954;SDS011;45815;52.334;5.024;2024-02-21T10:42:56;17.55;;;9.35;;
58954;SDS011;45815;52.334;5.024;2024-02-21T10:45:28;16.20;;;8.82;;
58954;SDS011;45815;52.334;5.024;2024-02-21T10:47:55;12.93;;;7.63;;
58954;SDS011;45815;52.334;5.024;2024-02-21T10:50:21;16.23;;;8.43;;
58954;SDS011;45815;52.334;5.024;2024-02-21T10:53:03;14.23;;;8.35;;
58954;SDS011;45815;52.334;5.024;2024-02-21T10:55:45;16.42;;;8.00;;
58954;SDS011;45815;52.334;5.024;2024-02-21T10:58:19;28.35;;;10.57;;
58954;SDS011;45815;52.334;5.024;2024-02-21T11:00:45;15.60;;;8.20;;
58954;SDS011;45815;52.334;5.024;2024-02-21T11:03:11;16.70;;;7.43;;
58954;SDS011;45815;52.334;5.024;2024-02-21T11:05:38;17.67;;;8.15;;
58954;SDS011;45815;52.334;5.024;2024-02-21T11:08:05;15.77;;;7.97;;
58954;SDS011;45815;52.334;5.024;2024-02-21T11:10:31;14.10;;;7.53;;
58954;SDS011;45815;52.334;5.024;2024-02-21T11:13:06;13.98;;;8.20;;
58954;SDS011;45815;52.334;5.024;2024-02-21T11:15:35;14.93;;;7.50;;
58954;SDS011;45815;52.334;5.024;2024-02-21T11:18:00;13.20;;;7.45;;
58954;SDS011;45815;52.334;5.024;2024-02-21T11:20:32;13.73;;;8.70;;
58954;SDS011;45815;52.334;5.024;2024-02-21T11:22:59;14.35;;;8.60;;
58954;SDS011;45815;52.334;5.024;2024-02-21T11:25:26;15.00;;;8.05;;
58954;SDS011;45815;52.334;5.024;2024-02-21T11:27:58;15.20;;;8.45;;
58954;SDS011;45815;52.334;5.024;2024-02-21T11:30:29;15.88;;;7.35;;
58954;SDS011;45815;52.334;5.024;2024-02-21T11:32:59;12.70;;;7.13;;
58954;SDS011;45815;52.334;5.024;2024-02-21T11:35:35;13.13;;;7.47;;
58954;SDS011;45815;52.334;5.024;2024-02-21T11:38:13;11.30;;;7.45;;
58954;SDS011;45815;52.334;5.024;2024-02-21T11:40:44;12.25;;;7.43;;
58954;SDS011;45815;52.334;5.024;2024-02-21T11:43:10;13.20;;;7.90;;
58954;SDS011;45815;52.334;5.024;2024-02-21T11:45:36;9.23;;;5.57;;
58954;SDS011;45815;52.334;5.024;2024-02-21T11:48:01;12.13;;;8.38;;
58954;SDS011;45815;52.334;5.024;2024-02-21T11:50:29;13.95;;;8.20;;
58954;SDS011;45815;52.334;5.024;2024-02-21T11:52:55;12.35;;;6.72;;
58954;SDS011;45815;52.334;5.024;2024-02-21T11:55:21;14.48;;;7.72;;
58954;SDS011;45815;52.334;5.024;2024-02-21T11:57:47;12.10;;;8.15;;
58954;SDS011;45815;52.334;5.024;2024-02-21T12:00:14;10.50;;;6.60;;
58954;SDS011;45815;52.334;5.024;2024-02-21T12:02:41;14.20;;;8.70;;
58954;SDS011;45815;52.334;5.024;2024-02-21T12:05:06;14.43;;;9.10;;
58954;SDS011;45815;52.334;5.024;2024-02-21T12:07:32;13.13;;;8.48;;
58954;SDS011;45815;52.334;5.024;2024-02-21T12:10:01;15.30;;;8.75;;
58954;SDS011;45815;52.334;5.024;2024-02-21T12:12:27;13.75;;;8.77;;
58954;SDS011;45815;52.334;5.024;2024-02-21T12:14:55;17.05;;;8.88;;
58954;SDS011;45815;52.334;5.024;2024-02-21T12:17:23;15.88;;;9.35;;
58954;SDS011;45815;52.334;5.024;2024-02-21T12:19:49;14.60;;;8.95;;
58954;SDS011;45815;52.334;5.024;2024-02-21T12:22:18;14.88;;;8.80;;
58954;SDS011;45815;52.334;5.024;2024-02-21T12:24:44;14.88;;;8.80;;
58954;SDS011;45815;52.334;5.024;2024-02-21T12:27:12;12.93;;;8.88;;
58954;SDS011;45815;52.334;5.024;2024-02-21T12:29:38;16.42;;;8.85;;
58954;SDS011;45815;52.334;5.024;2024-02-21T12:32:04;14.50;;;8.80;;
58954;SDS011;45815;52.334;5.024;2024-02-21T12:34:29;12.38;;;7.88;;
58954;SDS011;45815;52.334;5.024;2024-02-21T12:36:58;13.40;;;7.80;;
58954;SDS011;45815;52.334;5.024;2024-02-21T12:39:23;13.50;;;8.43;;
58954;SDS011;45815;52.334;5.024;2024-02-21T12:41:49;13.43;;;8.45;;
58954;SDS011;45815;52.334;5.024;2024-02-21T12:44:15;14.50;;;8.13;;
58954;SDS011;45815;52.334;5.024;2024-02-21T12:46:41;18.27;;;8.80;;
58954;SDS011;45815;52.334;5.024;2024-02-21T12:49:06;13.98;;;8.65;;
58954;SDS011;45815;52.334;5.024;2024-02-21T12:51:35;12.70;;;9.07;;
58954;SDS011;45815;52.334;5.024;2024-02-21T12:54:00;12.48;;;8.40;;
58954;SDS011;45815;52.334;5.024;2024-02-21T12:56:28;15.18;;;8.40;;
58954;SDS011;45815;52.334;5.024;2024-02-21T12:58:54;14.88;;;8.68;;
58954;SDS011;45815;52.334;5.024;2024-02-21T13:01:20;12.10;;;7.82;;
58954;SDS011;45815;52.334;5.024;2024-02-21T13:03:46;13.30;;;6.93;;
58954;SDS011;45815;52.334;5.024;2024-02-21T13:06:11;11.27;;;7.20;;
58954;SDS011;45815;52.334;5.024;2024-02-21T13:08:37;11.90;;;6.85;;
58954;SDS011;45815;52.334;5.024;2024-02-21T13:11:03;18.10;;;8.98;;
58954;SDS011;45815;52.334;5.024;2024-02-21T13:13:29;11.88;;;6.68;;
58954;SDS011;45815;52.334;5.024;2024-02-21T13:15:55;11.63;;;7.00;;
58954;SDS011;45815;52.334;5.024;2024-02-21T13:18:21;14.07;;;7.40;;
58954;SDS011;45815;52.334;5.024;2024-02-21T13:20:47;14.35;;;7.47;;
58954;SDS011;45815;52.334;5.024;2024-02-21T13:23:12;12.45;;;7.38;;
58954;SDS011;45815;52.334;5.024;2024-02-21T13:25:38;13.85;;;7.15;;
58954;SDS011;45815;52.334;5.024;2024-02-21T13:28:03;12.25;;;7.05;;
58954;SDS011;45815;52.334;5.024;2024-02-21T13:30:29;11.63;;;6.05;;
58954;SDS011;45815;52.334;5.024;2024-02-21T13:32:54;9.98;;;6.05;;
58954;SDS011;45815;52.334;5.024;2024-02-21T13:35:20;13.25;;;6.50;;
58954;SDS011;45815;52.334;5.024;2024-02-21T13:37:45;12.23;;;7.05;;
58954;SDS011;45815;52.334;5.024;2024-02-21T13:40:11;10.27;;;6.15;;
58954;SDS011;45815;52.334;5.024;2024-02-21T13:42:39;12.20;;;6.38;;
58954;SDS011;45815;52.334;5.024;2024-02-21T13:45:05;15.40;;;6.13;;
58954;SDS011;45815;52.334;5.024;2024-02-21T13:47:34;12.82;;;6.13;;
58954;SDS011;45815;52.334;5.024;2024-02-21T13:50:02;10.15;;;6.28;;
58954;SDS011;45815;52.334;5.024;2024-02-21T13:52:29;10.05;;;6.50;;
58954;SDS011;45815;52.334;5.024;2024-02-21T13:54:56;13.27;;;6.95;;
58954;SDS011;45815;52.334;5.024;2024-02-21T13:57:23;10.20;;;6.35;;
58954;SDS011;45815;52.334;5.024;2024-02-21T13:59:48;11.02;;;7.22;;
58954;SDS011;45815;52.334;5.024;2024-02-21T14:02:14;11.77;;;6.82;;
58954;SDS011;45815;52.334;5.024;2024-02-21T14:04:39;12.75;;;6.60;;
58954;SDS011;45815;52.334;5.024;2024-02-21T14:07:05;16.05;;;6.93;;
58954;SDS011;45815;52.334;5.024;2024-02-21T14:09:30;12.32;;;5.88;;
58954;SDS011;45815;52.334;5.024;2024-02-21T14:11:55;11.85;;;4.95;;
58954;SDS011;45815;52.334;5.024;2024-02-21T14:14:21;11.18;;;5.57;;
58954;SDS011;45815;52.334;5.024;2024-02-21T14:16:46;12.32;;;5.18;;
58954;SDS011;45815;52.334;5.024;2024-02-21T14:19:13;13.07;;;5.63;;
58954;SDS011;45815;52.334;5.024;2024-02-21T14:21:39;12.38;;;6.35;;
58954;SDS011;45815;52.334;5.024;2024-02-21T14:24:05;13.02;;;7.70;;
58954;SDS011;45815;52.334;5.024;2024-02-21T14:26:31;12.50;;;7.78;;
58954;SDS011;45815;52.334;5.024;2024-02-21T14:28:57;15.65;;;8.90;;